createdAt,value
2018-10-03T00:00:36.962Z,6.97
2018-10-03T00:03:05.978Z,8.13
2018-10-03T00:05:35.004Z,7.57
2018-10-03T00:08:04.024Z,8.13
2018-10-03T00:10:33.082Z,8.03
2018-10-03T00:13:08.485Z,7.53
2018-10-03T00:15:37.556Z,7.63
2018-10-03T00:18:06.557Z,7.73
2018-10-03T00:20:35.602Z,8.50
2018-10-03T00:23:04.825Z,8.13
2018-10-03T00:25:33.899Z,8.10
2018-10-03T00:28:02.983Z,8.10
2018-10-03T00:30:32.043Z,7.80
2018-10-03T00:33:01.078Z,8.77
2018-10-03T00:35:30.151Z,8.93
2018-10-03T00:37:59.212Z,9.50
2018-10-03T00:40:28.324Z,10.77
2018-10-03T00:43:03.914Z,9.07
2018-10-03T00:45:32.961Z,10.30
2018-10-03T00:48:02.017Z,9.40
2018-10-03T00:50:31.314Z,9.47
2018-10-03T00:53:00.381Z,8.43
2018-10-03T00:55:29.455Z,8.83
2018-10-03T00:57:58.536Z,9.53
2018-10-03T01:00:27.645Z,9.90
2018-10-03T01:02:57.279Z,10.53
2018-10-03T01:05:26.346Z,10.40
2018-10-03T01:07:55.372Z,9.70
2018-10-03T01:10:24.395Z,9.77
2018-10-03T01:12:53.424Z,9.63
2018-10-03T01:15:22.479Z,9.97
2018-10-03T01:17:51.508Z,8.83
2018-10-03T01:20:20.538Z,8.73
2018-10-03T01:22:49.574Z,9.30
2018-10-03T01:25:18.624Z,9.63
2018-10-03T01:27:47.652Z,8.90
2018-10-03T01:30:16.680Z,9.40
2018-10-03T01:32:45.667Z,8.87
2018-10-03T01:35:14.680Z,8.73
2018-10-03T01:37:43.697Z,8.87
2018-10-03T01:40:12.774Z,7.63
2018-10-03T01:42:41.828Z,8.53
2018-10-03T01:45:10.883Z,8.17
2018-10-03T01:47:40.081Z,8.13
2018-10-03T01:50:09.281Z,7.77
2018-10-03T01:52:38.379Z,7.67
2018-10-03T01:55:07.681Z,7.73
2018-10-03T01:57:36.714Z,7.43
2018-10-03T02:00:05.813Z,7.83
2018-10-03T02:02:34.801Z,7.80
2018-10-03T02:05:03.948Z,7.77
2018-10-03T02:07:32.980Z,7.77
2018-10-03T02:10:02.198Z,8.40
2018-10-03T02:12:31.228Z,7.50
2018-10-03T02:15:00.203Z,8.13
2018-10-03T02:17:29.260Z,8.33
2018-10-03T02:19:58.268Z,7.90
2018-10-03T02:22:27.334Z,7.83
2018-10-03T02:24:56.354Z,8.20
2018-10-03T02:27:25.722Z,7.37
2018-10-03T02:29:54.745Z,7.63
2018-10-03T02:32:23.758Z,7.20
2018-10-03T02:34:52.896Z,7.80
2018-10-03T02:37:21.930Z,7.73
2018-10-03T02:39:50.926Z,7.93
2018-10-03T02:42:20.015Z,8.03
2018-10-03T02:44:49.052Z,7.60
2018-10-03T02:47:18.144Z,6.47
2018-10-03T02:49:47.215Z,7.70
2018-10-03T02:52:16.321Z,6.63
2018-10-03T02:54:45.689Z,6.90
2018-10-03T02:57:14.706Z,5.93
2018-10-03T02:59:43.956Z,6.40
2018-10-03T03:02:13.027Z,7.27
2018-10-03T03:04:42.062Z,6.93
2018-10-03T03:07:11.087Z,6.53
2018-10-03T03:09:40.113Z,6.60
2018-10-03T03:12:09.306Z,7.10
2018-10-03T03:14:38.352Z,6.97
2018-10-03T03:17:07.444Z,7.00
2018-10-03T03:19:36.538Z,7.27
2018-10-03T03:22:05.593Z,6.70
2018-10-03T03:24:34.801Z,7.20
2018-10-03T03:27:03.855Z,6.67
2018-10-03T03:29:32.865Z,7.00
2018-10-03T03:32:01.912Z,6.83
2018-10-03T03:34:31.109Z,6.60
2018-10-03T03:37:00.349Z,7.27
2018-10-03T03:39:29.366Z,7.03
2018-10-03T03:41:58.385Z,6.40
2018-10-03T03:44:27.466Z,6.43
2018-10-03T03:46:56.466Z,6.87
2018-10-03T03:49:25.546Z,6.63
2018-10-03T03:51:54.655Z,7.10
2018-10-03T03:54:23.861Z,6.83
2018-10-03T03:56:53.006Z,6.70
2018-10-03T03:59:22.124Z,6.07
2018-10-03T04:01:51.141Z,6.43
2018-10-03T04:04:20.141Z,6.83
2018-10-03T04:06:49.192Z,6.40
2018-10-03T04:09:18.288Z,6.13
2018-10-03T04:11:47.307Z,6.13
2018-10-03T04:14:16.405Z,5.80
2018-10-03T04:16:45.863Z,6.00
2018-10-03T04:19:14.928Z,5.93
2018-10-03T04:21:43.978Z,6.20
2018-10-03T04:24:13.004Z,5.93
2018-10-03T04:26:42.014Z,5.80
2018-10-03T04:29:11.005Z,6.20
2018-10-03T04:31:40.037Z,5.70
2018-10-03T04:34:09.098Z,5.23
2018-10-03T04:36:38.261Z,6.10
2018-10-03T04:39:08.286Z,5.27
2018-10-03T04:41:37.661Z,5.37
2018-10-03T04:44:07.099Z,5.67
2018-10-03T04:46:36.157Z,5.87
2018-10-03T04:49:05.263Z,5.87
2018-10-03T04:51:34.497Z,6.30
2018-10-03T04:54:05.827Z,5.70
2018-10-03T04:56:34.875Z,5.67
2018-10-03T04:59:03.917Z,5.93
2018-10-03T05:01:32.930Z,5.70
2018-10-03T05:04:01.934Z,5.60
2018-10-03T05:06:30.969Z,5.57
2018-10-03T05:08:59.983Z,5.70
2018-10-03T05:11:29.202Z,5.80
2018-10-03T05:13:58.248Z,6.07
2018-10-03T05:16:27.507Z,6.87
2018-10-03T05:18:56.499Z,5.60
2018-10-03T05:21:25.609Z,6.63
2018-10-03T05:23:54.679Z,5.90
2018-10-03T05:26:23.773Z,5.60
2018-10-03T05:28:52.963Z,5.73
2018-10-03T05:31:22.019Z,6.87
2018-10-03T05:33:51.164Z,6.10
2018-10-03T05:36:20.182Z,6.03
2018-10-03T05:38:49.767Z,6.10
2018-10-03T05:41:18.786Z,6.33
2018-10-03T05:43:47.850Z,6.20
2018-10-03T05:46:16.902Z,5.73
2018-10-03T05:48:46.072Z,6.00
2018-10-03T05:51:15.297Z,5.87
2018-10-03T05:53:44.312Z,6.07
2018-10-03T05:56:13.310Z,6.63
2018-10-03T05:58:42.317Z,5.50
2018-10-03T06:01:11.361Z,5.73
2018-10-03T06:03:40.499Z,6.37
2018-10-03T06:06:09.497Z,6.60
2018-10-03T06:08:38.714Z,7.07
2018-10-03T06:11:07.731Z,7.60
2018-10-03T06:13:36.779Z,6.83
2018-10-03T06:16:05.837Z,6.90
2018-10-03T06:18:35.015Z,6.60
2018-10-03T06:21:04.142Z,7.27
2018-10-03T06:23:33.164Z,6.60
2018-10-03T06:26:02.204Z,6.37
2018-10-03T06:28:31.219Z,6.00
2018-10-03T06:31:00.258Z,6.60
2018-10-03T06:33:29.565Z,6.10
2018-10-03T06:35:58.707Z,6.57
2018-10-03T06:38:27.826Z,6.20
2018-10-03T06:40:57.226Z,5.77
2018-10-03T06:43:26.402Z,5.90
2018-10-03T06:45:55.480Z,6.20
2018-10-03T06:48:31.284Z,5.77
2018-10-03T06:51:00.353Z,6.70
2018-10-03T06:53:29.451Z,5.47
2018-10-03T06:55:58.495Z,5.60
2018-10-03T06:58:27.511Z,5.00
2018-10-03T07:00:56.643Z,4.83
2018-10-03T07:03:25.750Z,5.00
2018-10-03T07:05:54.942Z,5.50
2018-10-03T07:08:24.134Z,5.30
2018-10-03T07:10:53.355Z,5.03
2018-10-03T07:13:22.390Z,4.60
2018-10-03T07:15:51.420Z,4.43
2018-10-03T07:18:20.458Z,4.97
2018-10-03T07:20:50.062Z,4.60
2018-10-03T07:23:19.703Z,4.60
2018-10-03T07:25:48.886Z,4.27
2018-10-03T07:28:18.120Z,4.73
2018-10-03T07:30:47.146Z,4.67
2018-10-03T07:33:16.278Z,4.40
2018-10-03T07:35:45.293Z,4.73
2018-10-03T07:38:14.307Z,4.50
2018-10-03T07:40:43.368Z,4.43
2018-10-03T07:43:12.434Z,4.20
2018-10-03T07:45:41.465Z,5.10
2018-10-03T07:48:10.914Z,4.30
2018-10-03T07:50:40.089Z,4.43
2018-10-03T07:53:09.146Z,4.83
2018-10-03T07:55:38.216Z,3.97
2018-10-03T07:58:07.686Z,3.60
2018-10-03T08:00:36.828Z,3.77
2018-10-03T08:03:11.004Z,4.03
2018-10-03T08:05:40.119Z,3.70
2018-10-03T08:08:09.223Z,3.33
2018-10-03T08:10:39.287Z,3.53
2018-10-03T08:13:08.475Z,4.10
2018-10-03T08:15:37.668Z,3.60
2018-10-03T08:18:07.118Z,3.30
2018-10-03T08:20:36.392Z,3.60
2018-10-03T08:23:05.923Z,4.27
2018-10-03T08:25:34.994Z,3.87
2018-10-03T08:28:04.027Z,3.70
2018-10-03T08:30:33.104Z,3.67
2018-10-03T08:33:02.387Z,3.43
2018-10-03T08:35:31.434Z,3.87
2018-10-03T08:38:00.511Z,3.27
2018-10-03T08:40:29.643Z,3.27
2018-10-03T08:42:58.615Z,3.27
2018-10-03T08:45:27.729Z,4.20
2018-10-03T08:47:56.906Z,3.67
2018-10-03T08:50:25.917Z,3.80
2018-10-03T08:52:54.920Z,3.63
2018-10-03T08:55:23.927Z,3.70
2018-10-03T08:57:52.959Z,3.43
2018-10-03T09:00:22.018Z,3.63
2018-10-03T09:02:51.052Z,3.70
2018-10-03T09:05:20.168Z,3.60
2018-10-03T09:07:49.239Z,3.67
2018-10-03T09:10:18.410Z,3.40
2018-10-03T09:12:47.744Z,3.43
2018-10-03T09:15:16.863Z,3.60
2018-10-03T09:17:45.912Z,3.67
2018-10-03T09:20:14.956Z,3.20
2018-10-03T09:22:43.996Z,4.10
2018-10-03T09:25:13.070Z,3.30
2018-10-03T09:27:42.082Z,3.73
2018-10-03T09:30:11.128Z,3.60
2018-10-03T09:32:40.199Z,3.60
2018-10-03T09:35:09.277Z,3.73
2018-10-03T09:37:38.370Z,4.00
2018-10-03T09:40:07.388Z,3.30
2018-10-03T09:42:36.431Z,4.13
2018-10-03T09:45:06.088Z,3.77
2018-10-03T09:47:35.141Z,3.53
2018-10-03T09:50:05.034Z,3.97
2018-10-03T09:52:34.086Z,3.97
2018-10-03T09:55:03.150Z,3.70
2018-10-03T09:57:32.398Z,3.57
2018-10-03T10:00:01.496Z,3.40
2018-10-03T10:02:30.580Z,4.17
2018-10-03T10:04:59.765Z,4.10
2018-10-03T10:07:29.275Z,4.30
2018-10-03T10:09:58.653Z,4.10
2018-10-03T10:12:27.848Z,4.43
2018-10-03T10:14:56.890Z,3.73
2018-10-03T10:17:25.983Z,3.20
2018-10-03T10:19:55.071Z,4.17
2018-10-03T10:22:24.128Z,3.70
2018-10-03T10:24:53.154Z,3.60
2018-10-03T10:27:22.385Z,3.67
2018-10-03T10:29:51.468Z,3.40
2018-10-03T10:32:20.588Z,4.03
2018-10-03T10:34:49.808Z,4.53
2018-10-03T10:37:19.080Z,4.00
2018-10-03T10:39:48.198Z,4.13
2018-10-03T10:42:17.222Z,3.63
2018-10-03T10:44:46.238Z,3.87
2018-10-03T10:47:15.328Z,4.03
2018-10-03T10:49:44.438Z,3.90
2018-10-03T10:52:13.498Z,3.50
2018-10-03T10:54:42.698Z,3.47
2018-10-03T10:57:12.024Z,4.20
2018-10-03T10:59:41.113Z,4.53
2018-10-03T11:02:10.412Z,4.13
2018-10-03T11:04:39.649Z,4.27
2018-10-03T11:07:08.873Z,3.90
2018-10-03T11:09:38.328Z,3.80
2018-10-03T11:12:07.639Z,4.30
2018-10-03T11:14:36.732Z,3.67
2018-10-03T11:17:06.074Z,4.43
2018-10-03T11:19:36.387Z,4.37
2018-10-03T11:22:05.858Z,3.57
2018-10-03T11:24:35.188Z,3.73
2018-10-03T11:27:04.262Z,4.00
2018-10-03T11:29:33.310Z,3.90
2018-10-03T11:32:02.477Z,3.90
2018-10-03T11:34:31.723Z,4.93
2018-10-03T11:37:00.788Z,4.20
2018-10-03T11:39:30.041Z,3.47
2018-10-03T11:41:59.083Z,4.50
2018-10-03T11:44:28.218Z,3.73
2018-10-03T11:46:57.281Z,3.30
2018-10-03T11:49:26.378Z,4.30
2018-10-03T11:51:55.639Z,3.50
2018-10-03T11:54:24.692Z,3.73
2018-10-03T11:56:53.779Z,4.03
2018-10-03T11:59:23.213Z,3.97
2018-10-03T12:01:52.314Z,3.70
2018-10-03T12:04:21.752Z,3.77
2018-10-03T12:06:50.837Z,4.07
2018-10-03T12:09:19.912Z,4.07
2018-10-03T12:11:49.221Z,3.87
2018-10-03T12:14:18.586Z,4.30
2018-10-03T12:16:47.631Z,3.70
2018-10-03T12:19:16.808Z,3.50
2018-10-03T12:21:45.904Z,3.97
2018-10-03T12:24:14.965Z,3.90
2018-10-03T12:26:43.995Z,3.67
2018-10-03T12:29:19.734Z,3.80
2018-10-03T12:31:48.859Z,3.80
2018-10-03T12:34:17.965Z,3.77
2018-10-03T12:36:46.994Z,3.20
2018-10-03T12:39:16.017Z,3.30
2018-10-03T12:41:45.032Z,3.83
2018-10-03T12:44:14.066Z,4.23
2018-10-03T12:46:43.099Z,4.20
2018-10-03T12:49:12.114Z,4.90
2018-10-03T12:51:41.153Z,4.00
2018-10-03T12:54:10.205Z,3.80
2018-10-03T12:56:39.799Z,4.57
2018-10-03T12:59:08.903Z,4.70
2018-10-03T13:01:37.906Z,4.30
2018-10-03T13:04:07.131Z,4.20
2018-10-03T13:06:36.185Z,4.40
2018-10-03T13:09:09.118Z,4.30
2018-10-03T13:11:38.180Z,4.57
2018-10-03T13:14:07.894Z,4.53
2018-10-03T13:16:37.691Z,4.25
2018-10-03T13:19:07.261Z,4.72
2018-10-03T13:21:37.321Z,4.50
2018-10-03T13:24:07.102Z,4.80
2018-10-03T13:26:36.704Z,4.08
2018-10-03T13:29:06.709Z,4.15
2018-10-03T13:31:36.328Z,3.92
2018-10-03T13:34:05.952Z,4.00
2018-10-03T13:36:36.007Z,4.83
2018-10-03T13:39:07.248Z,4.42
2018-10-03T13:41:37.086Z,4.97
2018-10-03T13:44:07.051Z,4.55
2018-10-03T13:46:36.693Z,4.80
2018-10-03T13:49:06.590Z,4.77
2018-10-03T13:51:35.664Z,4.17
2018-10-03T13:54:05.116Z,4.13
2018-10-03T13:56:34.244Z,4.67
2018-10-03T13:59:03.295Z,4.37
2018-10-03T14:01:32.395Z,4.33
2018-10-03T14:04:01.437Z,4.20
2018-10-03T14:06:30.530Z,3.90
2018-10-03T14:08:59.757Z,4.00
2018-10-03T14:11:28.768Z,4.30
2018-10-03T14:13:57.861Z,3.87
2018-10-03T14:16:26.941Z,3.80
2018-10-03T14:18:56.009Z,4.07
2018-10-03T14:21:25.022Z,3.73
2018-10-03T14:23:54.060Z,3.70
2018-10-03T14:26:23.259Z,3.80
2018-10-03T14:28:52.324Z,3.57
2018-10-03T14:31:21.352Z,4.30
2018-10-03T14:33:50.420Z,4.17
2018-10-03T14:36:19.504Z,3.83
2018-10-03T14:38:48.511Z,4.27
2018-10-03T14:41:17.553Z,4.03
2018-10-03T14:43:46.611Z,3.93
2018-10-03T14:46:18.497Z,3.67
2018-10-03T14:48:47.562Z,3.57
2018-10-03T14:51:16.789Z,3.90
2018-10-03T14:53:45.921Z,4.80
2018-10-03T14:56:15.024Z,4.00
2018-10-03T14:58:44.248Z,4.63
2018-10-03T15:01:13.843Z,3.53
2018-10-03T15:03:42.969Z,3.80
2018-10-03T15:06:12.245Z,3.27
2018-10-03T15:08:41.526Z,4.00
2018-10-03T15:11:10.564Z,3.70
2018-10-03T15:13:39.754Z,3.73
2018-10-03T15:16:09.089Z,3.90
2018-10-03T15:18:38.152Z,4.27
2018-10-03T15:21:07.597Z,3.60
2018-10-03T15:23:36.869Z,3.77
2018-10-03T15:26:06.199Z,3.93
2018-10-03T15:28:35.238Z,3.30
2018-10-03T15:31:04.298Z,3.83
2018-10-03T15:33:33.497Z,3.80
2018-10-03T15:36:02.597Z,3.80
2018-10-03T15:38:31.617Z,4.13
2018-10-03T15:41:00.684Z,3.63
2018-10-03T15:43:29.723Z,3.27
2018-10-03T15:45:58.751Z,4.70
2018-10-03T15:48:27.803Z,3.80
2018-10-03T15:50:56.880Z,4.80
2018-10-03T15:53:25.920Z,4.53
2018-10-03T15:55:55.048Z,4.50
2018-10-03T15:58:24.143Z,3.90
2018-10-03T16:00:53.236Z,4.23
2018-10-03T16:03:22.381Z,4.47
2018-10-03T16:05:51.455Z,4.03
2018-10-03T16:08:20.506Z,4.43
2018-10-03T16:10:49.625Z,4.03
2018-10-03T16:13:18.692Z,4.23
2018-10-03T16:15:47.764Z,4.10
2018-10-03T16:18:16.810Z,4.10
2018-10-03T16:20:46.366Z,5.03
2018-10-03T16:23:15.369Z,4.30
2018-10-03T16:25:44.441Z,4.90
2018-10-03T16:28:13.604Z,4.57
2018-10-03T16:30:42.710Z,4.17
2018-10-03T16:33:11.755Z,4.70
2018-10-03T16:35:40.815Z,4.40
2018-10-03T16:38:09.909Z,5.10
2018-10-03T16:40:39.294Z,4.20
2018-10-03T16:43:08.320Z,4.23
2018-10-03T16:45:37.445Z,4.13
2018-10-03T16:48:07.055Z,4.07
2018-10-03T16:50:36.105Z,5.00
2018-10-03T16:53:05.205Z,5.23
2018-10-03T16:55:34.297Z,4.67
2018-10-03T16:58:03.429Z,4.70
2018-10-03T17:00:32.579Z,4.57
2018-10-03T17:03:01.602Z,5.23
2018-10-03T17:05:30.721Z,5.40
2018-10-03T17:07:59.833Z,5.40
2018-10-03T17:10:29.014Z,4.53
2018-10-03T17:12:58.314Z,4.67
2018-10-03T17:15:27.517Z,6.57
2018-10-03T17:17:56.645Z,6.60
2018-10-03T17:20:26.038Z,5.90
2018-10-03T17:22:55.083Z,4.70
2018-10-03T17:25:24.135Z,4.93
2018-10-03T17:27:53.144Z,5.30
2018-10-03T17:30:22.195Z,5.37
2018-10-03T17:32:51.204Z,5.87
2018-10-03T17:35:20.299Z,9.90
2018-10-03T17:37:49.351Z,6.40
2018-10-03T17:40:18.389Z,4.30
2018-10-03T17:42:47.500Z,4.37
2018-10-03T17:45:16.542Z,4.40
2018-10-03T17:47:45.656Z,5.50
2018-10-03T17:50:14.826Z,4.23
2018-10-03T17:52:43.887Z,4.90
2018-10-03T17:55:13.009Z,4.37
2018-10-03T17:57:42.477Z,4.43
2018-10-03T18:00:11.624Z,4.60
2018-10-03T18:02:40.791Z,4.30
2018-10-03T18:05:09.894Z,4.47
2018-10-03T18:07:38.970Z,4.13
2018-10-03T18:10:08.224Z,3.97
2018-10-03T18:12:37.260Z,4.73
2018-10-03T18:15:06.408Z,5.20
2018-10-03T18:17:35.437Z,5.97
2018-10-03T18:20:04.910Z,5.53
2018-10-03T18:22:33.949Z,5.80
2018-10-03T18:25:02.972Z,4.93
2018-10-03T18:27:32.024Z,5.00
2018-10-03T18:30:01.043Z,4.47
2018-10-03T18:32:31.012Z,5.73
2018-10-03T18:35:00.081Z,5.83
2018-10-03T18:37:29.122Z,5.73
2018-10-03T18:39:58.209Z,4.80
2018-10-03T18:42:27.206Z,4.63
2018-10-03T18:44:56.290Z,5.70
2018-10-03T18:47:25.521Z,6.67
2018-10-03T18:49:54.640Z,5.97
2018-10-03T18:52:23.963Z,6.03
2018-10-03T18:54:53.236Z,6.80
2018-10-03T18:57:22.365Z,5.53
2018-10-03T18:59:51.556Z,5.43
2018-10-03T19:02:20.847Z,6.37
2018-10-03T19:04:49.985Z,5.93
2018-10-03T19:07:19.026Z,7.50
2018-10-03T19:09:48.260Z,6.83
2018-10-03T19:12:17.376Z,6.53
2018-10-03T19:14:46.630Z,5.30
2018-10-03T19:17:15.630Z,5.33
2018-10-03T19:19:44.643Z,5.93
2018-10-03T19:22:13.665Z,5.43
2018-10-03T19:24:42.765Z,5.60
2018-10-03T19:27:11.814Z,5.53
2018-10-03T19:29:40.926Z,6.20
2018-10-03T19:32:09.958Z,5.20
2018-10-03T19:34:38.958Z,4.70
2018-10-03T19:37:08.029Z,4.43
2018-10-03T19:39:37.044Z,4.80
2018-10-03T19:42:06.138Z,5.00
2018-10-03T19:44:35.402Z,4.80
2018-10-03T19:47:04.505Z,4.77
2018-10-03T19:49:33.655Z,4.47
2018-10-03T19:52:02.754Z,4.80
2018-10-03T19:54:31.934Z,4.83
2018-10-03T19:57:01.058Z,4.50
2018-10-03T19:59:30.398Z,4.60
2018-10-03T20:01:59.495Z,3.90
2018-10-03T20:04:28.556Z,5.60
2018-10-03T20:06:57.793Z,4.97
2018-10-03T20:09:26.835Z,5.07
2018-10-03T20:11:55.826Z,5.27
2018-10-03T20:14:24.851Z,5.00
2018-10-03T20:16:53.913Z,4.70
2018-10-03T20:19:22.926Z,5.67
2018-10-03T20:21:52.003Z,4.70
2018-10-03T20:24:21.150Z,4.90
2018-10-03T20:26:50.152Z,4.90
2018-10-03T20:29:19.238Z,4.67
2018-10-03T20:31:48.257Z,4.80
2018-10-03T20:34:17.654Z,4.80
2018-10-03T20:36:46.858Z,5.00
2018-10-03T20:39:15.911Z,4.60
2018-10-03T20:41:45.198Z,5.20
2018-10-03T20:44:14.387Z,4.77
2018-10-03T20:46:43.451Z,4.80
2018-10-03T20:49:12.521Z,4.37
2018-10-03T20:51:41.673Z,4.33
2018-10-03T20:54:10.763Z,5.87
2018-10-03T20:56:40.009Z,5.33
2018-10-03T20:59:09.183Z,6.07
2018-10-03T21:01:38.216Z,5.50
2018-10-03T21:04:07.228Z,6.77
2018-10-03T21:06:36.505Z,5.23
2018-10-03T21:09:07.474Z,4.97
2018-10-03T21:11:36.516Z,5.53
2018-10-03T21:14:05.593Z,5.87
2018-10-03T21:16:34.690Z,5.47
2018-10-03T21:19:03.943Z,5.30
2018-10-03T21:21:33.017Z,5.07
2018-10-03T21:24:02.070Z,5.03
2018-10-03T21:26:31.107Z,5.20
2018-10-03T21:29:00.190Z,4.57
2018-10-03T21:31:29.233Z,4.93
2018-10-03T21:33:58.253Z,4.93
2018-10-03T21:36:27.668Z,6.50
2018-10-03T21:38:56.739Z,5.30
2018-10-03T21:41:25.771Z,5.87
2018-10-03T21:43:54.903Z,6.43
2018-10-03T21:46:24.140Z,7.40
2018-10-03T21:48:53.234Z,5.37
2018-10-03T21:51:22.301Z,5.33
2018-10-03T21:53:51.352Z,5.57
2018-10-03T21:56:20.448Z,5.40
2018-10-03T21:58:49.503Z,4.93
2018-10-03T22:01:18.672Z,5.77
2018-10-03T22:03:47.664Z,4.83
2018-10-03T22:06:16.728Z,4.90
2018-10-03T22:08:45.771Z,4.60
2018-10-03T22:11:15.142Z,5.37
2018-10-03T22:13:44.180Z,5.33
2018-10-03T22:16:13.199Z,5.40
2018-10-03T22:18:42.232Z,5.23
2018-10-03T22:21:11.450Z,4.83
2018-10-03T22:23:40.503Z,5.17
2018-10-03T22:26:09.541Z,4.57
2018-10-03T22:28:38.589Z,4.70
2018-10-03T22:31:07.641Z,5.27
2018-10-03T22:33:36.635Z,4.20
2018-10-03T22:36:05.766Z,4.67
2018-10-03T22:38:35.079Z,4.67
2018-10-03T22:41:04.166Z,4.10
2018-10-03T22:43:33.185Z,4.37
2018-10-03T22:46:02.192Z,4.33
2018-10-03T22:48:31.288Z,4.30
2018-10-03T22:51:00.418Z,4.60
2018-10-03T22:53:29.513Z,3.90
2018-10-03T22:55:58.600Z,4.90
2018-10-03T22:58:27.668Z,4.67
2018-10-03T23:00:56.706Z,5.17
2018-10-03T23:03:25.717Z,5.13
2018-10-03T23:05:54.763Z,5.67
2018-10-03T23:08:30.088Z,4.30
2018-10-03T23:10:59.197Z,4.20
2018-10-03T23:13:28.214Z,5.83
2018-10-03T23:15:57.307Z,5.23
2018-10-03T23:18:26.301Z,5.20
2018-10-03T23:20:55.301Z,4.73
2018-10-03T23:23:24.353Z,4.97
2018-10-03T23:25:53.427Z,4.87
2018-10-03T23:28:22.474Z,5.23
2018-10-03T23:30:51.559Z,5.87
2018-10-03T23:33:20.616Z,5.60
2018-10-03T23:35:49.632Z,4.90
2018-10-03T23:38:18.711Z,5.40
2018-10-03T23:40:47.750Z,6.33
2018-10-03T23:43:16.790Z,4.63
2018-10-03T23:45:45.899Z,5.53
2018-10-03T23:48:15.009Z,4.87
2018-10-03T23:50:44.048Z,5.73
2018-10-03T23:53:13.070Z,5.63
2018-10-03T23:55:42.121Z,4.63
2018-10-03T23:58:11.199Z,4.67
